createdAt,value
2023-02-09T00:02:25.222Z,17.80
2023-02-09T00:04:56.992Z,16.10
2023-02-09T00:10:34.155Z,16.90
2023-02-09T00:13:27.053Z,11.10
2023-02-09T00:16:02.402Z,14.70
2023-02-09T00:18:32.815Z,10.00
2023-02-09T00:21:09.442Z,11.60
2023-02-09T00:23:51.072Z,9.80
2023-02-09T00:26:22.221Z,12.90
2023-02-09T00:29:06.223Z,14.20
2023-02-09T00:31:51.324Z,12.60
2023-02-09T00:34:33.321Z,7.00
2023-02-09T00:37:11.835Z,6.60
2023-02-09T00:39:43.408Z,8.80
2023-02-09T00:42:17.126Z,10.90
2023-02-09T00:44:50.896Z,16.10
2023-02-09T00:47:34.970Z,12.80
2023-02-09T00:50:08.628Z,10.30
2023-02-09T00:52:39.380Z,14.00
2023-02-09T00:55:50.864Z,17.30
2023-02-09T00:58:22.515Z,15.50
2023-02-09T01:00:54.527Z,18.10
2023-02-09T01:03:31.250Z,16.30
2023-02-09T01:06:02.768Z,11.10
2023-02-09T01:08:36.266Z,9.10
2023-02-09T01:11:15.124Z,10.30
2023-02-09T01:13:54.685Z,9.80
2023-02-09T01:16:31.937Z,11.80
2023-02-09T01:19:04.119Z,16.60
2023-02-09T01:21:40.387Z,11.50
2023-02-09T01:24:13.367Z,12.70
2023-02-09T01:26:47.243Z,18.00
2023-02-09T01:29:30.692Z,15.00
2023-02-09T01:32:15.677Z,11.20
2023-02-09T01:34:57.664Z,18.60
2023-02-09T01:37:31.182Z,19.90
2023-02-09T01:40:02.872Z,15.10
2023-02-09T01:43:01.934Z,13.20
2023-02-09T01:45:44.944Z,15.00
2023-02-09T01:48:16.195Z,9.60
2023-02-09T01:50:51.237Z,12.10
2023-02-09T01:53:22.510Z,13.80
2023-02-09T01:56:05.499Z,7.40
2023-02-09T01:58:36.821Z,6.80
2023-02-09T02:01:07.613Z,8.40
2023-02-09T02:03:44.954Z,12.10
2023-02-09T02:06:33.392Z,13.40
2023-02-09T02:09:14.157Z,10.00
2023-02-09T02:11:59.740Z,15.00
2023-02-09T02:14:37.432Z,9.40
2023-02-09T02:17:48.121Z,9.80
2023-02-09T02:20:53.748Z,9.30
2023-02-09T02:26:58.875Z,15.40
2023-02-09T02:30:40.636Z,9.90
2023-02-09T02:33:33.451Z,10.10
2023-02-09T02:36:34.810Z,7.20
2023-02-09T02:42:26.655Z,8.60
2023-02-09T02:45:19.601Z,6.00
2023-02-09T02:48:31.306Z,11.10
2023-02-09T02:51:48.930Z,11.60
2023-02-09T02:54:34.510Z,10.30
2023-02-09T02:57:15.478Z,7.60
2023-02-09T02:59:52.275Z,5.80
2023-02-09T03:02:47.733Z,11.00
2023-02-09T03:05:34.285Z,5.30
2023-02-09T03:08:24.370Z,10.40
2023-02-09T03:11:08.504Z,9.10
2023-02-09T03:14:13.397Z,6.60
2023-02-09T03:17:46.742Z,6.00
2023-02-09T03:21:22.908Z,8.90
2023-02-09T03:24:36.444Z,7.60
2023-02-09T03:27:41.940Z,7.80
2023-02-09T03:30:31.827Z,6.80
2023-02-09T03:33:12.450Z,4.70
2023-02-09T03:36:38.771Z,2.00
2023-02-09T03:42:44.646Z,6.70
2023-02-09T03:45:19.158Z,3.70
2023-02-09T03:48:23.535Z,2.40
2023-02-09T03:51:13.272Z,3.30
2023-02-09T03:54:01.208Z,5.40
2023-02-09T03:56:52.825Z,7.20
2023-02-09T03:59:30.425Z,5.30
2023-02-09T04:02:08.896Z,6.60
2023-02-09T04:05:26.048Z,5.10
2023-02-09T04:08:20.950Z,2.10
2023-02-09T04:10:54.138Z,3.50
2023-02-09T04:13:38.906Z,5.80
2023-02-09T04:16:18.124Z,5.70
2023-02-09T04:18:51.529Z,4.70
2023-02-09T04:21:25.250Z,4.30
2023-02-09T04:26:29.971Z,7.40
2023-02-09T04:29:03.983Z,4.00
2023-02-09T04:31:32.795Z,3.90
2023-02-09T04:34:04.057Z,5.10
2023-02-09T04:36:39.353Z,6.40
2023-02-09T04:39:19.735Z,5.60
2023-02-09T04:41:56.882Z,2.10
2023-02-09T04:44:28.412Z,7.30
2023-02-09T04:46:59.657Z,4.80
2023-02-09T04:49:31.452Z,3.30
2023-02-09T04:52:02.701Z,2.90
2023-02-09T04:54:33.893Z,3.70
2023-02-09T04:57:25.671Z,1.10
2023-02-09T05:00:08.322Z,4.40
2023-02-09T05:02:42.080Z,4.70
2023-02-09T05:05:13.326Z,4.90
2023-02-09T05:07:43.974Z,5.50
2023-02-09T05:10:17.566Z,2.70
2023-02-09T05:12:58.437Z,3.80
2023-02-09T05:15:29.635Z,7.10
2023-02-09T05:18:00.403Z,5.20
2023-02-09T05:20:34.719Z,4.60
2023-02-09T05:23:12.211Z,7.40
2023-02-09T05:25:49.501Z,7.80
2023-02-09T05:28:34.602Z,3.00
2023-02-09T05:31:19.063Z,6.60
2023-02-09T05:33:52.626Z,7.30
2023-02-09T05:36:56.528Z,4.00
2023-02-09T05:39:27.797Z,3.30
2023-02-09T05:42:27.691Z,5.10
2023-02-09T05:45:25.605Z,8.30
2023-02-09T05:47:59.389Z,6.10
2023-02-09T05:50:39.908Z,9.20
2023-02-09T05:53:13.835Z,7.70
2023-02-09T05:55:52.449Z,6.90
2023-02-09T05:58:36.744Z,5.80
2023-02-09T06:01:20.953Z,6.20
2023-02-09T06:03:55.059Z,5.50
2023-02-09T06:06:26.733Z,3.50
2023-02-09T06:08:58.640Z,5.20
2023-02-09T06:11:27.161Z,4.20
2023-02-09T06:14:01.701Z,6.80
2023-02-09T06:16:33.302Z,16.10
2023-02-09T06:19:16.760Z,12.00
2023-02-09T06:21:45.550Z,3.90
2023-02-09T06:24:25.223Z,9.10
2023-02-09T06:26:56.666Z,6.90
2023-02-09T06:29:31.591Z,7.70
2023-02-09T06:32:31.901Z,6.30
2023-02-09T06:35:06.524Z,6.40
2023-02-09T06:38:00.661Z,5.60
2023-02-09T06:40:37.430Z,4.70
2023-02-09T06:43:09.028Z,6.80
2023-02-09T06:45:40.478Z,6.30
2023-02-09T06:48:22.480Z,4.00
2023-02-09T06:50:54.334Z,12.10
2023-02-09T06:53:22.853Z,15.60
2023-02-09T06:55:51.706Z,6.60
2023-02-09T06:58:31.759Z,7.00
2023-02-09T07:01:17.451Z,8.30
2023-02-09T07:03:46.254Z,5.10
2023-02-09T07:06:19.720Z,8.40
2023-02-09T07:08:53.321Z,6.10
2023-02-09T07:11:26.822Z,6.00
2023-02-09T07:14:16.796Z,8.20
2023-02-09T07:16:48.260Z,8.60
2023-02-09T07:19:19.679Z,5.30
2023-02-09T07:21:49.408Z,5.00
2023-02-09T07:24:20.181Z,7.20
2023-02-09T07:26:53.753Z,4.10
2023-02-09T07:31:56.694Z,3.50
2023-02-09T07:34:49.291Z,6.30
2023-02-09T07:37:36.790Z,5.00
2023-02-09T07:40:25.566Z,5.70
2023-02-09T07:43:37.875Z,6.50
2023-02-09T07:46:09.462Z,6.60
2023-02-09T07:48:51.767Z,4.60
2023-02-09T07:51:25.565Z,5.50
2023-02-09T07:53:53.709Z,5.20
2023-02-09T07:56:23.158Z,5.00
2023-02-09T07:58:51.997Z,5.00
2023-02-09T08:01:20.595Z,5.80
2023-02-09T08:03:52.230Z,4.60
2023-02-09T08:06:46.508Z,3.80
2023-02-09T08:09:16.946Z,2.40
2023-02-09T08:11:59.468Z,1.90
2023-02-09T08:14:31.344Z,3.90
2023-02-09T08:17:26.114Z,2.00
2023-02-09T08:19:59.397Z,6.50
2023-02-09T08:22:49.404Z,1.70
2023-02-09T08:25:20.285Z,2.30
2023-02-09T08:27:48.695Z,1.10
2023-02-09T08:30:19.924Z,2.30
2023-02-09T08:32:48.116Z,1.40
2023-02-09T08:35:17.037Z,3.80
2023-02-09T08:37:45.315Z,4.70
2023-02-09T08:40:15.809Z,2.30
2023-02-09T08:42:43.828Z,1.10
2023-02-09T08:45:15.449Z,0.60
2023-02-09T08:47:43.497Z,1.40
2023-02-09T08:50:12.128Z,3.80
2023-02-09T08:52:40.361Z,2.40
2023-02-09T08:55:08.850Z,2.90
2023-02-09T08:57:43.938Z,3.00
2023-02-09T09:00:16.487Z,1.90
2023-02-09T09:02:48.073Z,4.00
2023-02-09T09:05:16.447Z,1.00
2023-02-09T09:07:44.961Z,3.00
2023-02-09T09:10:15.694Z,1.30
2023-02-09T09:12:45.097Z,1.30
2023-02-09T09:15:13.754Z,1.10
2023-02-09T09:17:42.156Z,4.90
2023-02-09T09:20:14.562Z,6.40
2023-02-09T09:22:45.161Z,0.40
2023-02-09T09:25:13.542Z,1.70
2023-02-09T09:27:45.028Z,0.30
2023-02-09T09:30:13.967Z,2.30
2023-02-09T09:32:42.237Z,1.50
2023-02-09T09:35:13.601Z,1.50
2023-02-09T09:37:44.026Z,0.70
2023-02-09T09:40:21.979Z,2.50
2023-02-09T09:42:59.438Z,1.30
2023-02-09T09:45:32.611Z,3.30
2023-02-09T09:48:03.135Z,3.20
2023-02-09T09:50:41.832Z,1.80
2023-02-09T09:53:18.348Z,1.60
2023-02-09T09:55:49.108Z,2.30
2023-02-09T09:58:19.074Z,1.50
2023-02-09T10:00:49.850Z,1.10
2023-02-09T10:03:24.528Z,1.00
2023-02-09T10:06:02.733Z,1.20
2023-02-09T10:09:02.242Z,0.90
2023-02-09T10:12:03.795Z,1.90
2023-02-09T10:14:32.152Z,0.90
2023-02-09T10:17:00.703Z,1.00
2023-02-09T10:19:30.584Z,1.30
2023-02-09T10:22:01.302Z,1.40
2023-02-09T10:24:33.777Z,0.80
2023-02-09T10:27:29.491Z,2.50
2023-02-09T10:30:28.374Z,0.90
2023-02-09T10:33:00.994Z,0.80
2023-02-09T10:35:41.770Z,1.80
2023-02-09T10:38:18.303Z,0.80
2023-02-09T10:40:48.013Z,1.80
2023-02-09T10:43:30.273Z,2.40
2023-02-09T10:46:23.412Z,0.60
2023-02-09T10:48:54.093Z,0.40
2023-02-09T10:51:30.137Z,3.70
2023-02-09T10:54:07.538Z,1.80
2023-02-09T10:56:54.043Z,1.00
2023-02-09T10:59:24.255Z,2.50
2023-02-09T11:02:00.830Z,1.00
2023-02-09T11:04:41.752Z,1.50
2023-02-09T11:07:13.887Z,3.00
2023-02-09T11:10:12.520Z,2.40
2023-02-09T11:12:43.608Z,0.80
2023-02-09T11:15:16.385Z,1.80
2023-02-09T11:17:50.808Z,3.70
2023-02-09T11:20:35.608Z,1.60
2023-02-09T11:23:54.789Z,3.00
2023-02-09T11:27:42.469Z,2.80
2023-02-09T11:31:03.539Z,0.60
2023-02-09T11:33:50.087Z,1.50
2023-02-09T11:36:58.282Z,0.80
2023-02-09T11:40:38.976Z,2.90
2023-02-09T11:43:36.136Z,4.10
2023-02-09T11:46:11.283Z,1.30
2023-02-09T11:48:53.417Z,1.90
2023-02-09T11:51:35.489Z,0.80
2023-02-09T11:54:17.555Z,0.50
2023-02-09T11:56:49.551Z,1.80
2023-02-09T11:59:56.568Z,4.80
2023-02-09T12:02:46.385Z,2.50
2023-02-09T12:05:36.442Z,2.60
2023-02-09T12:08:35.966Z,2.20
2023-02-09T12:11:45.883Z,1.50
2023-02-09T12:14:30.324Z,1.30
2023-02-09T12:18:19.037Z,0.50
2023-02-09T12:21:03.084Z,1.30
2023-02-09T12:23:49.670Z,0.50
2023-02-09T12:26:36.129Z,2.50
2023-02-09T12:30:03.116Z,1.10
2023-02-09T12:33:43.205Z,1.10
2023-02-09T12:36:14.320Z,1.10
2023-02-09T12:39:05.552Z,1.60
2023-02-09T12:41:34.244Z,1.00
2023-02-09T12:45:03.331Z,1.10
2023-02-09T12:48:21.417Z,1.20
2023-02-09T12:50:53.773Z,2.40
2023-02-09T12:53:21.963Z,1.30
2023-02-09T12:56:28.418Z,0.60
2023-02-09T12:59:15.358Z,1.60
2023-02-09T13:02:16.139Z,0.60
2023-02-09T13:05:03.406Z,0.80
2023-02-09T13:08:01.444Z,1.20
2023-02-09T13:10:39.645Z,1.50
2023-02-09T13:13:11.096Z,0.60
2023-02-09T13:16:12.657Z,3.20
2023-02-09T13:18:52.906Z,0.80
2023-02-09T13:21:27.317Z,0.40
2023-02-09T13:24:04.067Z,3.30
2023-02-09T13:26:33.601Z,3.20
2023-02-09T13:29:21.449Z,0.90
2023-02-09T13:32:04.099Z,1.00
2023-02-09T13:34:55.190Z,1.80
2023-02-09T13:37:55.800Z,0.40
2023-02-09T13:40:29.889Z,0.40
2023-02-09T13:43:12.630Z,2.60
2023-02-09T13:45:53.080Z,0.50
2023-02-09T13:48:36.413Z,1.80
2023-02-09T13:51:15.673Z,6.70
2023-02-09T13:53:59.867Z,0.90
2023-02-09T13:56:28.482Z,0.40
2023-02-09T13:59:00.248Z,2.90
2023-02-09T14:01:36.350Z,0.60
2023-02-09T14:04:26.782Z,2.00
2023-02-09T14:07:14.885Z,0.40
2023-02-09T14:09:50.667Z,3.10
2023-02-09T14:12:55.956Z,2.10
2023-02-09T14:16:06.794Z,3.20
2023-02-09T14:18:58.919Z,0.40
2023-02-09T14:21:59.763Z,0.40
2023-02-09T14:24:50.767Z,1.40
2023-02-09T14:27:21.554Z,1.60
2023-02-09T14:29:52.947Z,0.50
2023-02-09T14:32:40.475Z,1.00
2023-02-09T14:35:23.444Z,0.60
2023-02-09T14:37:55.761Z,0.50
2023-02-09T14:40:32.032Z,0.50
2023-02-09T14:43:30.014Z,0.30
2023-02-09T14:46:03.200Z,0.90
2023-02-09T14:48:31.779Z,0.50
2023-02-09T14:51:02.910Z,0.80
2023-02-09T14:53:31.857Z,0.40
2023-02-09T14:56:00.598Z,0.40
2023-02-09T14:58:32.558Z,0.40
2023-02-09T15:01:09.526Z,2.50
2023-02-09T15:03:38.027Z,0.50
2023-02-09T15:06:08.975Z,0.50
2023-02-09T15:08:39.181Z,2.80
2023-02-09T15:11:29.733Z,1.10
2023-02-09T15:14:02.570Z,0.50
2023-02-09T15:16:31.304Z,0.40
2023-02-09T15:19:00.022Z,1.70
2023-02-09T15:21:28.292Z,0.40
2023-02-09T15:23:59.640Z,0.30
2023-02-09T15:26:36.105Z,0.80
2023-02-09T15:29:15.535Z,0.40
2023-02-09T15:31:53.249Z,0.40
2023-02-09T15:34:24.580Z,0.30
2023-02-09T15:37:02.281Z,9.60
2023-02-09T15:39:39.874Z,0.40
2023-02-09T15:42:36.968Z,0.80
2023-02-09T15:45:40.781Z,0.90
2023-02-09T15:48:09.402Z,0.30
2023-02-09T15:51:01.270Z,0.60
2023-02-09T15:53:31.357Z,1.20
2023-02-09T15:56:11.276Z,0.30
2023-02-09T15:58:42.535Z,0.50
2023-02-09T16:01:18.839Z,0.50
2023-02-09T16:04:12.762Z,0.60
2023-02-09T16:06:52.647Z,0.60
2023-02-09T16:09:27.824Z,0.90
2023-02-09T16:11:56.293Z,0.40
2023-02-09T16:14:26.986Z,0.90
2023-02-09T16:16:55.227Z,0.90
2023-02-09T16:19:23.541Z,1.00
2023-02-09T16:21:57.192Z,0.40
2023-02-09T16:24:40.194Z,0.50
2023-02-09T16:27:22.734Z,0.80
2023-02-09T16:29:51.260Z,6.30
2023-02-09T16:32:23.522Z,8.80
2023-02-09T16:34:52.121Z,8.60
2023-02-09T16:37:32.485Z,8.10
2023-02-09T16:40:01.692Z,6.00
2023-02-09T16:42:29.946Z,8.50
2023-02-09T16:44:58.156Z,8.50
2023-02-09T16:47:29.560Z,2.10
2023-02-09T16:50:20.452Z,2.10
2023-02-09T16:52:49.356Z,2.00
2023-02-09T16:55:29.857Z,3.60
2023-02-09T16:58:00.242Z,3.40
2023-02-09T17:00:34.945Z,2.50
2023-02-09T17:03:16.484Z,4.30
2023-02-09T17:05:52.988Z,0.60
2023-02-09T17:08:27.486Z,0.40
2023-02-09T17:10:56.375Z,2.00
2023-02-09T17:13:27.684Z,0.80
2023-02-09T17:16:06.017Z,3.10
2023-02-09T17:18:39.738Z,4.70
2023-02-09T17:21:37.207Z,3.10
2023-02-09T17:24:06.873Z,7.20
2023-02-09T17:26:35.132Z,3.90
2023-02-09T17:29:03.819Z,7.60
2023-02-09T17:31:47.263Z,4.80
2023-02-09T17:34:20.742Z,11.60
2023-02-09T17:36:49.229Z,11.20
2023-02-09T17:39:19.150Z,8.60
2023-02-09T17:41:56.632Z,11.10
2023-02-09T17:44:46.568Z,8.30
2023-02-09T17:47:20.011Z,15.90
2023-02-09T17:49:48.282Z,13.00
2023-02-09T17:52:20.081Z,8.40
2023-02-09T17:54:49.454Z,9.80
2023-02-09T17:57:27.585Z,7.00
2023-02-09T17:59:55.962Z,1.30
2023-02-09T18:02:27.555Z,4.50
2023-02-09T18:04:58.496Z,6.50
2023-02-09T18:07:26.996Z,7.50
2023-02-09T18:10:05.207Z,5.40
2023-02-09T18:12:36.043Z,4.90
2023-02-09T18:15:28.758Z,8.00
2023-02-09T18:17:59.943Z,6.90
2023-02-09T18:20:31.554Z,5.50
2023-02-09T18:23:12.999Z,6.20
2023-02-09T18:25:41.368Z,6.30
2023-02-09T18:28:09.890Z,4.50
2023-02-09T18:30:39.212Z,7.50
2023-02-09T18:33:08.317Z,7.70
2023-02-09T18:35:39.440Z,8.10
2023-02-09T18:38:12.053Z,7.30
2023-02-09T18:40:42.887Z,3.10
2023-02-09T18:43:14.939Z,8.00
2023-02-09T18:45:46.788Z,3.70
2023-02-09T18:48:15.277Z,4.60
2023-02-09T18:50:43.649Z,4.80
2023-02-09T18:53:12.446Z,4.70
2023-02-09T18:55:46.893Z,4.50
2023-02-09T18:58:24.079Z,4.20
2023-02-09T19:00:55.409Z,4.10
2023-02-09T19:03:36.358Z,6.90
2023-02-09T19:06:13.460Z,4.70
2023-02-09T19:08:42.243Z,2.60
2023-02-09T19:11:15.625Z,5.00
2023-02-09T19:14:05.620Z,4.40
2023-02-09T19:16:37.379Z,4.30
2023-02-09T19:19:06.258Z,5.30
2023-02-09T19:21:37.839Z,3.20
2023-02-09T19:24:08.640Z,5.50
2023-02-09T19:26:39.685Z,6.30
2023-02-09T19:29:14.206Z,1.60
2023-02-09T19:32:03.575Z,4.10
2023-02-09T19:34:46.874Z,3.80
2023-02-09T19:37:22.889Z,2.90
2023-02-09T19:40:26.689Z,6.00
2023-02-09T19:42:56.371Z,2.90
2023-02-09T19:45:25.176Z,3.40
2023-02-09T19:47:58.214Z,3.50
2023-02-09T19:50:36.913Z,3.10
2023-02-09T19:53:31.108Z,3.90
2023-02-09T19:56:07.830Z,6.20
2023-02-09T19:58:57.814Z,3.70
2023-02-09T20:01:31.779Z,8.10
2023-02-09T20:04:15.453Z,3.80
2023-02-09T20:06:52.066Z,3.10
2023-02-09T20:09:26.245Z,1.70
2023-02-09T20:14:34.976Z,5.70
2023-02-09T20:17:16.667Z,2.70
2023-02-09T20:19:47.698Z,1.50
2023-02-09T20:22:21.971Z,3.20
2023-02-09T20:24:55.718Z,3.80
2023-02-09T20:30:01.597Z,4.10
2023-02-09T20:32:37.958Z,1.60
2023-02-09T20:35:12.031Z,3.40
2023-02-09T20:37:43.216Z,2.50
2023-02-09T20:40:27.660Z,5.60
2023-02-09T20:43:17.744Z,2.90
2023-02-09T20:46:26.061Z,5.40
2023-02-09T20:49:08.373Z,5.60
2023-02-09T20:51:51.309Z,2.40
2023-02-09T20:54:22.218Z,1.70
2023-02-09T20:56:53.369Z,4.70
2023-02-09T21:02:16.922Z,4.40
2023-02-09T21:04:45.331Z,1.90
2023-02-09T21:07:25.581Z,2.40
2023-02-09T21:09:57.357Z,2.70
2023-02-09T21:12:28.900Z,7.30
2023-02-09T21:15:00.139Z,3.20
2023-02-09T21:17:28.513Z,2.10
2023-02-09T21:20:06.409Z,5.00
2023-02-09T21:22:37.760Z,3.30
2023-02-09T21:25:26.776Z,6.50
2023-02-09T21:27:59.869Z,3.30
2023-02-09T21:30:31.772Z,5.20
2023-02-09T21:33:10.544Z,5.30
2023-02-09T21:35:46.036Z,3.40
2023-02-09T21:38:21.702Z,2.70
2023-02-09T21:40:52.694Z,5.80
2023-02-09T21:43:33.793Z,6.20
2023-02-09T21:46:02.219Z,6.90
2023-02-09T21:48:30.821Z,5.30
2023-02-09T21:51:06.920Z,4.40
2023-02-09T21:53:35.227Z,3.40
2023-02-09T21:56:07.455Z,1.80
2023-02-09T21:58:35.671Z,9.50
2023-02-09T22:01:13.037Z,4.30
2023-02-09T22:04:01.790Z,3.50
2023-02-09T22:06:52.790Z,4.10
2023-02-09T22:09:22.598Z,2.90
2023-02-09T22:11:51.573Z,3.30
2023-02-09T22:14:22.458Z,4.60
2023-02-09T22:16:56.557Z,1.10
2023-02-09T22:19:28.588Z,2.80
2023-02-09T22:22:01.273Z,1.90
2023-02-09T22:24:34.857Z,3.90
2023-02-09T22:27:03.554Z,6.00
2023-02-09T22:29:33.464Z,4.30
2023-02-09T22:32:01.792Z,3.80
2023-02-09T22:34:30.218Z,3.10
2023-02-09T22:36:58.420Z,3.40
2023-02-09T22:39:35.643Z,1.30
2023-02-09T22:42:11.528Z,3.30
2023-02-09T22:44:39.699Z,6.90
2023-02-09T22:47:13.085Z,7.70
2023-02-09T22:49:47.321Z,5.50
2023-02-09T22:52:16.019Z,5.00
2023-02-09T22:54:54.731Z,4.10
2023-02-09T22:57:23.085Z,3.70
2023-02-09T22:59:51.580Z,2.20
2023-02-09T23:02:19.980Z,4.10
2023-02-09T23:04:51.411Z,5.30
2023-02-09T23:07:22.766Z,4.30
2023-02-09T23:09:57.350Z,6.00
2023-02-09T23:12:50.031Z,4.40
2023-02-09T23:15:20.578Z,3.50
2023-02-09T23:17:54.938Z,4.50
2023-02-09T23:20:28.367Z,3.70
2023-02-09T23:23:01.563Z,3.40
2023-02-09T23:25:29.932Z,4.70
2023-02-09T23:28:02.068Z,6.30
2023-02-09T23:30:42.937Z,4.70
2023-02-09T23:33:27.473Z,2.00
2023-02-09T23:36:10.466Z,2.40
2023-02-09T23:38:48.988Z,2.80
2023-02-09T23:41:46.862Z,3.50
2023-02-09T23:44:21.154Z,5.70
2023-02-09T23:47:26.334Z,5.00
2023-02-09T23:49:57.432Z,6.00
2023-02-09T23:52:30.639Z,2.40
2023-02-09T23:55:04.223Z,4.30
2023-02-09T23:58:08.846Z,5.60
